Time;durP1;ratioP1;P1;durP2;ratioP2;P2;SDS_P1;SDS_P2;PMS_P1;PMS_P2;Temp;Humidity;BMP_temperature;BMP_pressure;BME280_temperature;BME280_humidity;BME280_pressure;Samples;Min_cycle;Max_cycle;Signal;HPM_P1;HPM_P2
2023/08/02 00:00:08;;;;;;;4.30;1.27;;;;;;;;;;5075511;28;20222;-27
2023/08/02 00:02:41;;;;;;;4.83;1.17;;;;;;;;;;5082395;28;20232;-26
2023/08/02 00:05:09;;;;;;;1.60;1.30;;;;;;;;;;5074573;28;20220;-30
2023/08/02 00:07:36;;;;;;;1.93;1.00;;;;;;;;;;5083030;28;20207;-28
2023/08/02 00:10:04;;;;;;;1.67;1.20;;;;;;;;;;5090942;28;20226;-27
2023/08/02 00:12:34;;;;;;;2.73;1.10;;;;;;;;;;5085225;28;20256;-27
2023/08/02 00:15:01;;;;;;;1.97;1.20;;;;;;;;;;5072744;28;20206;-30
2023/08/02 00:17:28;;;;;;;1.40;0.93;;;;;;;;;;5071701;28;20201;-26
2023/08/02 00:19:56;;;;;;;1.17;1.07;;;;;;;;;;5070723;28;20230;-26
2023/08/02 00:22:23;;;;;;;1.13;1.03;;;;;;;;;;5073261;28;20211;-28
2023/08/02 00:24:50;;;;;;;1.40;1.30;;;;;;;;;;5088922;28;20201;-26
2023/08/02 00:27:17;;;;;;;9.10;1.67;;;;;;;;;;5080387;28;20215;-25
2023/08/02 00:29:45;;;;;;;1.93;1.00;;;;;;;;;;5087194;28;20231;-27
2023/08/02 00:32:13;;;;;;;1.07;0.93;;;;;;;;;;5080224;28;20217;-28
2023/08/02 00:34:40;;;;;;;2.17;1.20;;;;;;;;;;5082282;28;20291;-28
2023/08/02 00:37:07;;;;;;;1.03;0.93;;;;;;;;;;5079410;28;20215;-25
2023/08/02 00:39:34;;;;;;;1.03;0.93;;;;;;;;;;5086937;28;20228;-29
2023/08/02 00:42:01;;;;;;;1.60;0.97;;;;;;;;;;5086134;28;20193;-27
2023/08/02 00:44:28;;;;;;;1.00;1.00;;;;;;;;;;5083689;28;20205;-24
2023/08/02 00:46:57;;;;;;;1.07;1.00;;;;;;;;;;5081160;28;20319;-29
2023/08/02 00:49:24;;;;;;;1.00;0.87;;;;;;;;;;5071531;28;20231;-26
2023/08/02 00:51:51;;;;;;;1.90;1.00;;;;;;;;;;5076641;28;20271;-28
2023/08/02 00:54:18;;;;;;;1.73;1.17;;;;;;;;;;5082545;28;20270;-28
2023/08/02 00:56:46;;;;;;;2.03;1.20;;;;;;;;;;5080084;28;20209;-25
2023/08/02 00:59:13;;;;;;;1.63;1.20;;;;;;;;;;5081260;28;20228;-26
2023/08/02 01:01:42;;;;;;;1.00;0.90;;;;;;;;;;5078778;28;20194;-27
2023/08/02 01:04:11;;;;;;;2.33;1.50;;;;;;;;;;5085859;28;20216;-26
2023/08/02 01:06:43;;;;;;;1.00;1.00;;;;;;;;;;5089274;28;20205;-27
2023/08/02 01:09:13;;;;;;;1.47;1.00;;;;;;;;;;5087021;28;20238;-25
2023/08/02 01:11:43;;;;;;;1.23;1.00;;;;;;;;;;5082417;28;20233;-30
2023/08/02 01:14:12;;;;;;;2.67;1.40;;;;;;;;;;5083725;28;20295;-28
2023/08/02 01:16:40;;;;;;;1.03;1.00;;;;;;;;;;5082501;28;20204;-27
2023/08/02 01:19:11;;;;;;;1.80;1.00;;;;;;;;;;5091495;28;20224;-28
2023/08/02 01:21:39;;;;;;;1.10;1.00;;;;;;;;;;5087970;28;20228;-29
2023/08/02 01:24:07;;;;;;;4.43;1.30;;;;;;;;;;5086616;28;20201;-28
2023/08/02 01:26:36;;;;;;;1.90;1.20;;;;;;;;;;5080213;28;20346;-28
2023/08/02 01:29:04;;;;;;;1.60;1.23;;;;;;;;;;5070603;28;20232;-29
2023/08/02 01:31:32;;;;;;;1.13;1.03;;;;;;;;;;5079004;28;20212;-29
2023/08/02 01:34:00;;;;;;;1.30;1.20;;;;;;;;;;5081258;28;20224;-27
2023/08/02 01:36:27;;;;;;;1.93;1.00;;;;;;;;;;5070270;28;20213;-26
2023/08/02 01:38:55;;;;;;;3.87;1.10;;;;;;;;;;5088064;28;20225;-26
2023/08/02 01:41:22;;;;;;;1.07;1.03;;;;;;;;;;5088391;28;20193;-27
2023/08/02 01:43:49;;;;;;;1.30;1.00;;;;;;;;;;5077852;28;20205;-25
2023/08/02 01:46:17;;;;;;;1.70;1.13;;;;;;;;;;5078428;28;20202;-28
2023/08/02 01:48:44;;;;;;;1.03;1.00;;;;;;;;;;5070256;28;20235;-29
2023/08/02 01:51:11;;;;;;;0.90;0.90;;;;;;;;;;5073573;28;20197;-30
2023/08/02 01:53:38;;;;;;;1.27;1.10;;;;;;;;;;5078376;28;20261;-27
2023/08/02 01:56:07;;;;;;;1.23;1.00;;;;;;;;;;5086688;28;20284;-25
2023/08/02 01:58:34;;;;;;;1.33;1.23;;;;;;;;;;5080975;28;20274;-28
2023/08/02 02:01:01;;;;;;;1.93;1.30;;;;;;;;;;5081314;28;20202;-27
2023/08/02 02:03:28;;;;;;;1.40;1.30;;;;;;;;;;5090054;28;20193;-29
2023/08/02 02:05:55;;;;;;;1.03;1.03;;;;;;;;;;5088429;28;20213;-27
2023/08/02 02:08:23;;;;;;;5.07;1.30;;;;;;;;;;5079895;28;20236;-28
2023/08/02 02:10:51;;;;;;;2.13;1.17;;;;;;;;;;5080445;28;20213;-28
2023/08/02 02:13:19;;;;;;;1.50;0.93;;;;;;;;;;5081592;28;20220;-25
2023/08/02 02:15:46;;;;;;;4.83;1.47;;;;;;;;;;5072726;28;20312;-25
2023/08/02 02:18:13;;;;;;;1.30;1.20;;;;;;;;;;5066514;28;20240;-27
2023/08/02 02:20:41;;;;;;;1.77;1.60;;;;;;;;;;5070408;28;20296;-25
2023/08/02 02:23:08;;;;;;;2.23;1.43;;;;;;;;;;5078945;28;20200;-30
2023/08/02 02:25:35;;;;;;;2.23;1.27;;;;;;;;;;5081835;28;20309;-29
2023/08/02 02:28:02;;;;;;;1.47;1.10;;;;;;;;;;5076370;28;20213;-26
2023/08/02 02:30:31;;;;;;;1.70;1.30;;;;;;;;;;5086779;28;20315;-28
2023/08/02 02:32:58;;;;;;;1.90;1.20;;;;;;;;;;5075140;28;20258;-28
2023/08/02 02:35:25;;;;;;;1.90;1.37;;;;;;;;;;5085798;28;20207;-27
2023/08/02 02:37:54;;;;;;;1.57;1.30;;;;;;;;;;5084866;28;20207;-30
2023/08/02 02:40:21;;;;;;;1.20;1.10;;;;;;;;;;5075772;28;20300;-29
2023/08/02 02:42:48;;;;;;;4.80;1.40;;;;;;;;;;5070656;28;20211;-29
2023/08/02 02:45:15;;;;;;;1.40;1.30;;;;;;;;;;5072587;28;20284;-25
2023/08/02 02:47:43;;;;;;;1.30;1.20;;;;;;;;;;5084907;28;20200;-26
2023/08/02 02:50:11;;;;;;;1.63;1.50;;;;;;;;;;5086602;28;20228;-25
2023/08/02 02:52:40;;;;;;;1.17;1.00;;;;;;;;;;5070652;28;20221;-27
2023/08/02 02:55:08;;;;;;;1.20;1.10;;;;;;;;;;5077275;28;20252;-27
2023/08/02 02:57:35;;;;;;;1.90;1.10;;;;;;;;;;5067520;28;20205;-28
2023/08/02 03:00:02;;;;;;;1.97;1.37;;;;;;;;;;5084860;28;20244;-27
2023/08/02 03:02:31;;;;;;;2.73;1.40;;;;;;;;;;5085945;28;20230;-28
2023/08/02 03:04:59;;;;;;;2.17;1.23;;;;;;;;;;5066084;28;20220;-31
2023/08/02 03:07:26;;;;;;;3.97;1.47;;;;;;;;;;5073042;28;20291;-27
2023/08/02 03:09:53;;;;;;;1.10;1.07;;;;;;;;;;5069442;28;20229;-27
2023/08/02 03:12:21;;;;;;;2.43;1.03;;;;;;;;;;5070640;28;20215;-25
2023/08/02 03:14:49;;;;;;;1.30;1.20;;;;;;;;;;5075664;28;20204;-27
2023/08/02 03:17:16;;;;;;;0.90;0.90;;;;;;;;;;5078007;28;20204;-29
2023/08/02 03:19:43;;;;;;;2.83;1.20;;;;;;;;;;5079029;28;20307;-26
2023/08/02 03:22:11;;;;;;;1.43;1.00;;;;;;;;;;5081236;28;20205;-26
2023/08/02 03:24:39;;;;;;;1.47;1.20;;;;;;;;;;5074900;28;20201;-24
2023/08/02 03:27:06;;;;;;;1.30;1.20;;;;;;;;;;5069623;28;20201;-25
2023/08/02 03:29:35;;;;;;;1.20;1.10;;;;;;;;;;5072070;28;20256;-28
2023/08/02 03:32:02;;;;;;;1.90;1.33;;;;;;;;;;5076610;28;20205;-28
2023/08/02 03:34:29;;;;;;;2.57;1.20;;;;;;;;;;5081794;28;20252;-29
2023/08/02 03:36:56;;;;;;;3.20;1.37;;;;;;;;;;5069393;28;20217;-25
2023/08/02 03:39:27;;;;;;;1.87;1.47;;;;;;;;;;5081889;28;20227;-26
2023/08/02 03:41:54;;;;;;;2.30;1.60;;;;;;;;;;5073765;28;20209;-28
2023/08/02 03:44:21;;;;;;;1.83;1.20;;;;;;;;;;5074495;28;20213;-29
2023/08/02 03:46:48;;;;;;;1.83;1.40;;;;;;;;;;5082607;28;20207;-26
2023/08/02 03:49:15;;;;;;;3.03;1.40;;;;;;;;;;5085782;28;20555;-26
2023/08/02 03:51:42;;;;;;;1.23;1.10;;;;;;;;;;5070176;28;20207;-26
2023/08/02 03:54:10;;;;;;;2.00;1.40;;;;;;;;;;5078545;28;20228;-25
2023/08/02 03:56:38;;;;;;;1.53;1.20;;;;;;;;;;5075862;28;20201;-26
2023/08/02 03:59:05;;;;;;;4.73;1.60;;;;;;;;;;5079504;28;20240;-28
2023/08/02 04:01:32;;;;;;;1.23;1.13;;;;;;;;;;5084074;28;20212;-28
2023/08/02 04:03:59;;;;;;;1.90;1.30;;;;;;;;;;5075401;28;20211;-30
2023/08/02 04:06:27;;;;;;;1.73;1.40;;;;;;;;;;5077728;28;20215;-27
2023/08/02 04:08:54;;;;;;;3.57;1.40;;;;;;;;;;5068425;28;20225;-28
2023/08/02 04:11:21;;;;;;;4.00;1.73;;;;;;;;;;5082042;28;20212;-26
2023/08/02 04:13:50;;;;;;;3.93;1.70;;;;;;;;;;5079213;28;20758;-26
2023/08/02 04:16:17;;;;;;;1.20;1.10;;;;;;;;;;5079180;28;20231;-25
2023/08/02 04:18:44;;;;;;;4.10;1.57;;;;;;;;;;5080989;28;20214;-28
2023/08/02 04:21:17;;;;;;;2.80;1.60;;;;;;;;;;5068176;28;20233;-26
2023/08/02 04:23:44;;;;;;;3.50;1.20;;;;;;;;;;5074329;28;20289;-28
2023/08/02 04:26:11;;;;;;;1.60;1.40;;;;;;;;;;5075265;28;20293;-24
2023/08/02 04:28:38;;;;;;;2.43;1.60;;;;;;;;;;5079422;28;20233;-25
2023/08/02 04:31:07;;;;;;;1.53;1.20;;;;;;;;;;5091096;28;20206;-27
2023/08/02 04:33:34;;;;;;;2.97;1.40;;;;;;;;;;5087309;28;20361;-27
2023/08/02 04:36:01;;;;;;;1.70;1.10;;;;;;;;;;5079399;28;20278;-28
2023/08/02 04:38:29;;;;;;;1.70;1.20;;;;;;;;;;5078638;28;20296;-29
2023/08/02 04:40:56;;;;;;;2.30;1.43;;;;;;;;;;5072145;28;20288;-28
2023/08/02 04:43:23;;;;;;;1.30;1.20;;;;;;;;;;5067865;28;20197;-29
2023/08/02 04:45:50;;;;;;;1.27;1.17;;;;;;;;;;5077215;28;20272;-30
2023/08/02 04:48:19;;;;;;;2.60;1.53;;;;;;;;;;5090311;28;20211;-24
2023/08/02 04:50:46;;;;;;;4.03;1.93;;;;;;;;;;5081718;28;20213;-27
2023/08/02 04:53:13;;;;;;;2.47;1.50;;;;;;;;;;5071550;28;20233;-26
2023/08/02 04:55:43;;;;;;;2.77;1.60;;;;;;;;;;5087759;28;20196;-29
2023/08/02 04:58:11;;;;;;;2.37;1.33;;;;;;;;;;5081108;28;20226;-28
2023/08/02 05:00:38;;;;;;;3.30;1.50;;;;;;;;;;5075626;28;20213;-26
2023/08/02 05:03:05;;;;;;;1.33;1.23;;;;;;;;;;5074877;28;20197;-27
2023/08/02 05:05:34;;;;;;;1.37;1.27;;;;;;;;;;5084768;28;20543;-25
2023/08/02 05:08:17;;;;;;;1.30;1.20;;;;;;;;;;5089335;28;20208;-26
2023/08/02 05:10:44;;;;;;;2.10;1.90;;;;;;;;;;5092631;28;20239;-30
2023/08/02 05:13:11;;;;;;;1.33;1.23;;;;;;;;;;5076199;28;20211;-28
2023/08/02 05:15:38;;;;;;;2.20;1.30;;;;;;;;;;5081936;28;20522;-26
2023/08/02 05:18:05;;;;;;;1.77;1.40;;;;;;;;;;5073257;28;20224;-27
2023/08/02 05:20:35;;;;;;;2.37;1.20;;;;;;;;;;5075507;28;20248;-27
2023/08/02 05:23:02;;;;;;;1.70;1.60;;;;;;;;;;5076371;28;20215;-27
2023/08/02 05:25:31;;;;;;;2.33;1.40;;;;;;;;;;5089622;28;20204;-26
2023/08/02 05:28:05;;;;;;;4.50;1.67;;;;;;;;;;5078739;28;20307;-28
2023/08/02 05:30:32;;;;;;;2.27;1.40;;;;;;;;;;5091605;28;20319;-26
2023/08/02 05:33:00;;;;;;;2.17;1.43;;;;;;;;;;5073218;28;20193;-26
2023/08/02 05:35:29;;;;;;;1.73;1.43;;;;;;;;;;5072446;28;20224;-28
2023/08/02 05:37:58;;;;;;;3.10;1.40;;;;;;;;;;5082506;28;20237;-27
2023/08/02 05:40:25;;;;;;;2.10;1.30;;;;;;;;;;5091819;28;20220;-27
2023/08/02 05:42:52;;;;;;;1.60;1.30;;;;;;;;;;5077541;28;20224;-26
2023/08/02 05:45:19;;;;;;;2.90;1.50;;;;;;;;;;5075638;28;20197;-27
2023/08/02 05:47:46;;;;;;;1.97;1.10;;;;;;;;;;5074346;28;20197;-27
2023/08/02 05:50:14;;;;;;;2.53;1.83;;;;;;;;;;5069723;28;20229;-29
2023/08/02 05:52:41;;;;;;;1.90;1.70;;;;;;;;;;5072567;28;20295;-27
2023/08/02 05:55:10;;;;;;;2.27;1.50;;;;;;;;;;5079316;28;20225;-25
2023/08/02 05:57:37;;;;;;;2.57;1.37;;;;;;;;;;5071624;28;20209;-27
2023/08/02 06:00:06;;;;;;;2.70;1.73;;;;;;;;;;5075606;28;20232;-26
2023/08/02 06:02:34;;;;;;;3.43;1.70;;;;;;;;;;5085916;28;20209;-31
2023/08/02 06:05:04;;;;;;;3.90;1.60;;;;;;;;;;5087595;28;20203;-27
2023/08/02 06:07:31;;;;;;;3.80;1.60;;;;;;;;;;5088908;28;20204;-26
2023/08/02 06:09:58;;;;;;;2.83;1.70;;;;;;;;;;5079574;28;20236;-29
2023/08/02 06:12:27;;;;;;;2.63;1.70;;;;;;;;;;5071662;28;20210;-29
2023/08/02 06:14:55;;;;;;;3.17;1.87;;;;;;;;;;5085666;28;20232;-28
2023/08/02 06:17:22;;;;;;;3.73;1.97;;;;;;;;;;5082746;28;20201;-28
2023/08/02 06:19:49;;;;;;;2.97;1.70;;;;;;;;;;5090914;28;20246;-30
2023/08/02 06:22:16;;;;;;;4.83;2.00;;;;;;;;;;5084869;28;20209;-28
2023/08/02 06:24:44;;;;;;;3.53;1.77;;;;;;;;;;5085985;28;20205;-29
2023/08/02 06:27:11;;;;;;;4.77;1.93;;;;;;;;;;5075779;28;20205;-27
2023/08/02 06:29:39;;;;;;;1.57;1.40;;;;;;;;;;5084932;28;20319;-27
2023/08/02 06:32:06;;;;;;;5.07;2.47;;;;;;;;;;5069478;28;20205;-31
2023/08/02 06:34:34;;;;;;;3.97;2.43;;;;;;;;;;5081306;28;20299;-34
2023/08/02 06:37:01;;;;;;;4.80;2.10;;;;;;;;;;5083096;28;20208;-34
2023/08/02 06:39:28;;;;;;;4.03;2.13;;;;;;;;;;5074214;28;20253;-33
2023/08/02 06:41:55;;;;;;;4.93;2.00;;;;;;;;;;5075421;28;20201;-31
2023/08/02 06:44:22;;;;;;;4.47;2.37;;;;;;;;;;5077781;28;20201;-31
2023/08/02 06:46:51;;;;;;;4.57;2.37;;;;;;;;;;5089253;28;20200;-32
2023/08/02 06:49:18;;;;;;;3.97;2.43;;;;;;;;;;5090655;28;20240;-31
2023/08/02 06:51:45;;;;;;;2.40;1.90;;;;;;;;;;5086452;28;20196;-32
2023/08/02 06:54:12;;;;;;;2.13;1.77;;;;;;;;;;5084853;28;20329;-36
2023/08/02 06:56:39;;;;;;;5.30;3.37;;;;;;;;;;5076662;28;20196;-32
2023/08/02 06:59:06;;;;;;;5.33;2.83;;;;;;;;;;5080753;28;20216;-32
2023/08/02 07:01:34;;;;;;;3.37;2.70;;;;;;;;;;5077721;28;20209;-35
2023/08/02 07:04:03;;;;;;;4.67;2.97;;;;;;;;;;5069973;28;20205;-32
2023/08/02 07:06:30;;;;;;;4.77;2.87;;;;;;;;;;5072507;28;20205;-31
2023/08/02 07:08:57;;;;;;;4.13;2.77;;;;;;;;;;5069013;28;20221;-35
2023/08/02 07:11:24;;;;;;;5.60;3.17;;;;;;;;;;5067395;28;20291;-33
2023/08/02 07:13:51;;;;;;;2.90;2.40;;;;;;;;;;5074195;28;20206;-30
2023/08/02 07:16:18;;;;;;;7.07;3.10;;;;;;;;;;5080126;28;20204;-35
2023/08/02 07:18:46;;;;;;;4.73;3.00;;;;;;;;;;5089395;28;20224;-38
2023/08/02 07:21:15;;;;;;;4.77;2.73;;;;;;;;;;5079108;28;20303;-38
2023/08/02 07:23:42;;;;;;;4.87;2.90;;;;;;;;;;5088773;28;20204;-32
2023/08/02 07:26:09;;;;;;;6.73;3.77;;;;;;;;;;5075189;28;20208;-35
2023/08/02 07:28:36;;;;;;;2.53;2.33;;;;;;;;;;5076114;28;20227;-35
2023/08/02 07:31:07;;;;;;;4.77;3.43;;;;;;;;;;5078971;28;20201;-33
2023/08/02 07:33:37;;;;;;;6.43;3.53;;;;;;;;;;5079925;28;20205;-32
2023/08/02 07:36:04;;;;;;;6.07;3.63;;;;;;;;;;5075138;28;20223;-35
2023/08/02 07:38:33;;;;;;;5.40;3.67;;;;;;;;;;5078000;28;20248;-32
2023/08/02 07:41:04;;;;;;;3.77;3.17;;;;;;;;;;5077143;28;20197;-33
2023/08/02 07:43:31;;;;;;;3.57;3.10;;;;;;;;;;5074674;28;20205;-34
2023/08/02 07:45:59;;;;;;;6.50;3.50;;;;;;;;;;5080372;28;20201;-33
2023/08/02 07:48:26;;;;;;;4.00;2.97;;;;;;;;;;5079103;28;20211;-28
2023/08/02 07:50:53;;;;;;;4.63;3.10;;;;;;;;;;5073538;28;20196;-33
2023/08/02 07:53:20;;;;;;;3.57;3.27;;;;;;;;;;5071848;28;20259;-31
2023/08/02 07:55:50;;;;;;;4.13;3.73;;;;;;;;;;5081946;28;20224;-35
2023/08/02 07:58:18;;;;;;;4.33;3.20;;;;;;;;;;5075828;28;20201;-36
2023/08/02 08:00:45;;;;;;;4.07;3.67;;;;;;;;;;5083334;28;20220;-37
2023/08/02 08:03:12;;;;;;;4.37;3.20;;;;;;;;;;5079161;28;20201;-35
2023/08/02 08:05:39;;;;;;;4.20;3.17;;;;;;;;;;5084089;28;20202;-32
2023/08/02 08:08:06;;;;;;;4.17;2.87;;;;;;;;;;5084849;28;20368;-34
2023/08/02 08:10:33;;;;;;;4.60;3.00;;;;;;;;;;5088841;28;20217;-30
2023/08/02 08:13:01;;;;;;;3.17;2.87;;;;;;;;;;5076270;28;20309;-31
2023/08/02 08:15:29;;;;;;;3.43;3.13;;;;;;;;;;5085876;28;20224;-33
2023/08/02 08:17:56;;;;;;;3.07;2.80;;;;;;;;;;5084727;28;20553;-36
2023/08/02 08:20:23;;;;;;;4.77;2.83;;;;;;;;;;5081109;28;20239;-32
2023/08/02 08:22:50;;;;;;;3.47;2.63;;;;;;;;;;5075433;28;20215;-34
2023/08/02 08:25:17;;;;;;;3.33;3.00;;;;;;;;;;5085148;28;20201;-33
2023/08/02 08:27:44;;;;;;;2.83;2.63;;;;;;;;;;5078303;28;20201;-39
2023/08/02 08:30:13;;;;;;;2.73;2.50;;;;;;;;;;5085540;28;20221;-35
2023/08/02 08:32:40;;;;;;;3.10;2.80;;;;;;;;;;5085275;28;20197;-29
2023/08/02 08:35:09;;;;;;;3.70;2.90;;;;;;;;;;5081952;28;20282;-35
2023/08/02 08:37:36;;;;;;;3.33;2.87;;;;;;;;;;5083261;28;20289;-34
2023/08/02 08:40:04;;;;;;;3.67;3.23;;;;;;;;;;5073402;28;20221;-32
2023/08/02 08:42:31;;;;;;;3.70;2.97;;;;;;;;;;5075624;28;20227;-34
2023/08/02 08:44:58;;;;;;;2.70;2.50;;;;;;;;;;5087940;28;20207;-35
2023/08/02 08:47:28;;;;;;;2.97;2.50;;;;;;;;;;5086216;28;20215;-34
2023/08/02 08:49:59;;;;;;;3.03;1.90;;;;;;;;;;5087422;28;20248;-32
2023/08/02 08:52:29;;;;;;;2.97;2.50;;;;;;;;;;5087024;28;20212;-34
2023/08/02 08:54:56;;;;;;;3.90;2.33;;;;;;;;;;5074755;28;20221;-33
2023/08/02 08:57:42;;;;;;;2.93;2.20;;;;;;;;;;5079361;28;20216;-33
2023/08/02 09:00:09;;;;;;;4.63;2.30;;;;;;;;;;5071858;28;20235;-35
2023/08/02 09:02:39;;;;;;;1.93;1.73;;;;;;;;;;5070401;28;20681;-35
2023/08/02 09:05:06;;;;;;;1.97;1.83;;;;;;;;;;5079871;28;20201;-36
2023/08/02 09:07:33;;;;;;;2.07;1.83;;;;;;;;;;5072950;28;20213;-33
2023/08/02 09:10:00;;;;;;;1.80;1.70;;;;;;;;;;5079759;28;20422;-33
2023/08/02 09:12:28;;;;;;;2.03;1.87;;;;;;;;;;5076851;28;20299;-31
2023/08/02 09:15:00;;;;;;;2.03;1.93;;;;;;;;;;5079968;28;20427;-29
2023/08/02 09:17:27;;;;;;;2.27;1.97;;;;;;;;;;5069803;28;20205;-33
2023/08/02 09:20:09;;;;;;;2.43;1.77;;;;;;;;;;5072529;28;20231;-35
2023/08/02 09:22:36;;;;;;;1.70;1.60;;;;;;;;;;5072431;28;20201;-39
2023/08/02 09:25:06;;;;;;;2.20;2.00;;;;;;;;;;5090414;28;20204;-32
2023/08/02 09:27:34;;;;;;;1.83;1.67;;;;;;;;;;5075619;28;20208;-40
2023/08/02 09:30:01;;;;;;;2.00;1.90;;;;;;;;;;5089496;28;20225;-35
2023/08/02 09:32:28;;;;;;;1.80;1.70;;;;;;;;;;5091511;28;20269;-36
2023/08/02 09:34:57;;;;;;;2.00;1.83;;;;;;;;;;5091752;28;20236;-35
2023/08/02 09:37:32;;;;;;;1.80;1.70;;;;;;;;;;5077977;28;20219;-34
2023/08/02 09:40:00;;;;;;;3.17;1.97;;;;;;;;;;5071592;28;20225;-33
2023/08/02 09:42:27;;;;;;;1.80;1.70;;;;;;;;;;5078625;28;20212;-33
2023/08/02 09:44:55;;;;;;;3.67;2.13;;;;;;;;;;5077005;28;20198;-33
2023/08/02 09:47:22;;;;;;;2.10;1.90;;;;;;;;;;5085736;28;20205;-31
2023/08/02 09:50:03;;;;;;;2.03;1.87;;;;;;;;;;5090919;28;20235;-34
2023/08/02 09:52:31;;;;;;;1.93;1.70;;;;;;;;;;5083111;28;20209;-33
2023/08/02 09:54:58;;;;;;;1.73;1.60;;;;;;;;;;5082267;28;20225;-28
2023/08/02 09:57:26;;;;;;;2.20;1.90;;;;;;;;;;5074711;28;20228;-31
2023/08/02 09:59:55;;;;;;;2.73;2.00;;;;;;;;;;5079450;28;20231;-31
2023/08/02 10:02:24;;;;;;;3.37;2.07;;;;;;;;;;5090856;28;20205;-33
2023/08/02 10:04:51;;;;;;;4.43;2.23;;;;;;;;;;5087701;28;20196;-32
2023/08/02 10:07:18;;;;;;;2.70;2.40;;;;;;;;;;5077896;28;20216;-34
2023/08/02 10:09:47;;;;;;;4.20;2.17;;;;;;;;;;5087323;28;20507;-32
2023/08/02 10:12:16;;;;;;;2.60;2.40;;;;;;;;;;5068917;28;20212;-32
2023/08/02 10:14:43;;;;;;;2.17;2.03;;;;;;;;;;5070602;28;20232;-28
2023/08/02 10:17:11;;;;;;;4.17;1.90;;;;;;;;;;5082009;28;20203;-35
2023/08/02 10:19:38;;;;;;;2.47;2.20;;;;;;;;;;5090952;28;20213;-34
2023/08/02 10:22:05;;;;;;;5.10;2.40;;;;;;;;;;5081951;28;20213;-38
2023/08/02 10:24:32;;;;;;;2.97;2.07;;;;;;;;;;5078888;28;20208;-37
2023/08/02 10:27:03;;;;;;;3.00;2.10;;;;;;;;;;5080691;28;20203;-36
2023/08/02 10:29:31;;;;;;;2.30;2.10;;;;;;;;;;5072190;28;20229;-33
2023/08/02 10:31:58;;;;;;;2.27;2.07;;;;;;;;;;5088409;28;20208;-33
2023/08/02 10:34:44;;;;;;;2.77;2.13;;;;;;;;;;5084924;28;20197;-34
2023/08/02 10:37:12;;;;;;;2.63;1.80;;;;;;;;;;5075768;28;20223;-29
2023/08/02 10:39:55;;;;;;;2.27;2.00;;;;;;;;;;5081026;28;20288;-34
2023/08/02 10:42:24;;;;;;;4.10;2.87;;;;;;;;;;5069807;28;20209;-38
2023/08/02 10:45:10;;;;;;;4.20;2.80;;;;;;;;;;5085418;28;20231;-31
2023/08/02 10:47:37;;;;;;;2.93;2.50;;;;;;;;;;5078940;28;20300;-34
2023/08/02 10:50:05;;;;;;;4.77;2.80;;;;;;;;;;5069619;28;20250;-32
2023/08/02 10:52:33;;;;;;;3.40;2.47;;;;;;;;;;5069759;28;20687;-32
2023/08/02 10:55:10;;;;;;;3.30;2.80;;;;;;;;;;5071076;28;20208;-29
2023/08/02 10:57:40;;;;;;;3.30;2.93;;;;;;;;;;5075947;28;20204;-35
2023/08/02 11:00:17;;;;;;;4.13;3.07;;;;;;;;;;5084971;28;20235;-33
2023/08/02 11:02:49;;;;;;;3.70;3.27;;;;;;;;;;5067730;28;20290;-37
2023/08/02 11:05:18;;;;;;;4.00;3.10;;;;;;;;;;5075074;28;20194;-30
2023/08/02 11:07:59;;;;;;;4.87;3.33;;;;;;;;;;5073657;28;20280;-39
2023/08/02 11:10:26;;;;;;;3.37;2.90;;;;;;;;;;5089154;28;20221;-38
2023/08/02 11:12:55;;;;;;;3.73;2.97;;;;;;;;;;5080041;28;20389;-32
2023/08/02 11:15:22;;;;;;;4.33;3.03;;;;;;;;;;5080492;28;20235;-35
2023/08/02 11:17:49;;;;;;;4.80;3.27;;;;;;;;;;5071081;28;20207;-32
2023/08/02 11:20:16;;;;;;;5.60;3.87;;;;;;;;;;5069355;28;20247;-29
2023/08/02 11:22:44;;;;;;;4.77;3.10;;;;;;;;;;5073975;28;20252;-33
2023/08/02 11:25:19;;;;;;;3.07;2.77;;;;;;;;;;5080800;28;20199;-32
2023/08/02 11:27:46;;;;;;;2.97;2.60;;;;;;;;;;5069959;28;20205;-33
2023/08/02 11:30:15;;;;;;;3.33;3.03;;;;;;;;;;5074188;28;20321;-38
2023/08/02 11:32:45;;;;;;;3.07;2.73;;;;;;;;;;5084587;28;20216;-36
2023/08/02 11:35:16;;;;;;;3.27;2.97;;;;;;;;;;5084673;28;20289;-37
2023/08/02 11:37:43;;;;;;;3.20;2.90;;;;;;;;;;5074013;28;20227;-34
2023/08/02 11:40:11;;;;;;;3.87;3.00;;;;;;;;;;5068664;28;20297;-32
2023/08/02 11:42:47;;;;;;;3.40;3.10;;;;;;;;;;5068748;28;20220;-40
2023/08/02 11:45:15;;;;;;;3.23;2.97;;;;;;;;;;5083371;28;20210;-34
2023/08/02 11:47:42;;;;;;;4.37;2.93;;;;;;;;;;5072538;28;20238;-33
2023/08/02 11:50:10;;;;;;;3.47;2.87;;;;;;;;;;5069010;28;20233;-35
2023/08/02 11:52:37;;;;;;;3.10;2.80;;;;;;;;;;5075286;28;20212;-33
2023/08/02 11:55:04;;;;;;;3.83;3.43;;;;;;;;;;5076585;28;20204;-34
2023/08/02 11:57:31;;;;;;;4.50;3.07;;;;;;;;;;5077337;28;20527;-34
2023/08/02 11:59:59;;;;;;;4.97;3.03;;;;;;;;;;5074532;28;20226;-30
2023/08/02 12:02:29;;;;;;;4.37;3.30;;;;;;;;;;5069172;28;20207;-31
2023/08/02 12:04:56;;;;;;;3.23;2.93;;;;;;;;;;5073738;28;20511;-33
2023/08/02 12:07:27;;;;;;;5.50;3.10;;;;;;;;;;5077721;28;20290;-34
2023/08/02 12:09:54;;;;;;;3.40;3.10;;;;;;;;;;5079952;28;20220;-38
2023/08/02 12:12:22;;;;;;;4.97;2.50;;;;;;;;;;5084239;28;20234;-37
2023/08/02 12:14:49;;;;;;;3.83;2.90;;;;;;;;;;5073722;28;20262;-36
2023/08/02 12:17:16;;;;;;;5.90;3.03;;;;;;;;;;5088359;28;20232;-34
2023/08/02 12:19:45;;;;;;;2.90;2.70;;;;;;;;;;5086874;28;20226;-36
2023/08/02 12:22:12;;;;;;;3.13;2.83;;;;;;;;;;5079432;28;20211;-36
2023/08/02 12:24:39;;;;;;;2.97;2.73;;;;;;;;;;5076882;28;20198;-31
2023/08/02 12:27:12;;;;;;;3.87;2.67;;;;;;;;;;5084244;28;20203;-30
2023/08/02 12:29:40;;;;;;;3.07;2.70;;;;;;;;;;5085179;28;20224;-32
2023/08/02 12:32:07;;;;;;;3.47;2.73;;;;;;;;;;5079988;28;20313;-33
2023/08/02 12:34:36;;;;;;;3.73;2.70;;;;;;;;;;5088943;28;20195;-31
2023/08/02 12:37:04;;;;;;;2.90;2.60;;;;;;;;;;5081672;28;20220;-34
2023/08/02 12:39:31;;;;;;;3.30;2.30;;;;;;;;;;5078497;28;20234;-37
2023/08/02 12:41:58;;;;;;;3.30;2.53;;;;;;;;;;5086685;28;20198;-35
2023/08/02 12:44:28;;;;;;;5.33;2.47;;;;;;;;;;5089276;28;20207;-34
2023/08/02 12:46:55;;;;;;;3.03;2.40;;;;;;;;;;5069719;28;20219;-38
2023/08/02 12:49:22;;;;;;;2.63;2.43;;;;;;;;;;5066806;28;20234;-37
2023/08/02 12:51:49;;;;;;;2.33;2.13;;;;;;;;;;5073561;28;20213;-33
2023/08/02 12:54:17;;;;;;;5.20;3.10;;;;;;;;;;5071395;28;20205;-34
2023/08/02 12:56:44;;;;;;;2.60;2.10;;;;;;;;;;5084900;28;20219;-34
2023/08/02 12:59:12;;;;;;;4.23;2.30;;;;;;;;;;5082696;28;20228;-36
2023/08/02 13:01:39;;;;;;;3.43;2.33;;;;;;;;;;5075680;28;20211;-34
2023/08/02 13:04:06;;;;;;;2.60;2.10;;;;;;;;;;5071326;28;20235;-29
2023/08/02 13:06:33;;;;;;;4.23;2.40;;;;;;;;;;5078977;28;20290;-34
2023/08/02 13:09:00;;;;;;;4.00;2.63;;;;;;;;;;5069187;28;20227;-36
2023/08/02 13:11:31;;;;;;;3.70;2.10;;;;;;;;;;5072430;28;20204;-35
2023/08/02 13:13:58;;;;;;;2.20;2.00;;;;;;;;;;5083092;28;20220;-36
2023/08/02 13:16:25;;;;;;;3.00;1.90;;;;;;;;;;5081438;28;20222;-33
2023/08/02 13:18:52;;;;;;;2.93;1.97;;;;;;;;;;5082044;28;20326;-31
2023/08/02 13:21:20;;;;;;;3.57;2.23;;;;;;;;;;5079091;28;20302;-34
2023/08/02 13:23:47;;;;;;;2.47;1.80;;;;;;;;;;5082212;28;20232;-35
2023/08/02 13:26:14;;;;;;;2.17;1.67;;;;;;;;;;5079063;28;20196;-38
2023/08/02 13:28:43;;;;;;;2.10;1.70;;;;;;;;;;5082546;28;20234;-30
2023/08/02 13:31:10;;;;;;;2.00;1.80;;;;;;;;;;5080057;28;20199;-30
2023/08/02 13:33:41;;;;;;;1.70;1.53;;;;;;;;;;5080235;28;20231;-35
2023/08/02 13:36:08;;;;;;;2.13;1.50;;;;;;;;;;5082166;28;20230;-34
2023/08/02 13:38:35;;;;;;;2.63;1.80;;;;;;;;;;5082752;28;20215;-38
2023/08/02 13:41:03;;;;;;;2.00;1.80;;;;;;;;;;5085273;28;20210;-36
2023/08/02 13:43:30;;;;;;;2.93;1.90;;;;;;;;;;5077324;28;20209;-39
2023/08/02 13:45:58;;;;;;;2.57;2.37;;;;;;;;;;5086973;28;20204;-31
2023/08/02 13:48:32;;;;;;;2.27;1.90;;;;;;;;;;5076199;28;20207;-29
2023/08/02 13:51:00;;;;;;;1.80;1.70;;;;;;;;;;5076719;28;20214;-36
2023/08/02 13:53:27;;;;;;;2.53;1.73;;;;;;;;;;5087918;28;20230;-31
2023/08/02 13:55:54;;;;;;;2.30;2.00;;;;;;;;;;5084242;28;20195;-38
2023/08/02 13:58:21;;;;;;;3.87;1.80;;;;;;;;;;5074194;28;20294;-33
2023/08/02 14:00:48;;;;;;;1.87;1.63;;;;;;;;;;5083787;28;20262;-34
2023/08/02 14:03:16;;;;;;;1.50;1.37;;;;;;;;;;5075474;28;20207;-33
2023/08/02 14:05:45;;;;;;;1.83;1.63;;;;;;;;;;5074813;28;20207;-34
2023/08/02 14:08:12;;;;;;;1.80;1.70;;;;;;;;;;5073774;28;20208;-30
2023/08/02 14:10:43;;;;;;;2.50;1.87;;;;;;;;;;5080200;28;20570;-34
2023/08/02 14:13:10;;;;;;;2.27;1.90;;;;;;;;;;5076291;28;20210;-32
2023/08/02 14:15:37;;;;;;;2.23;1.57;;;;;;;;;;5079619;28;20207;-35
2023/08/02 14:18:04;;;;;;;2.17;1.83;;;;;;;;;;5082401;28;20293;-30
2023/08/02 14:20:32;;;;;;;1.60;1.50;;;;;;;;;;5091041;28;20254;-35
2023/08/02 14:23:00;;;;;;;2.33;1.83;;;;;;;;;;5093232;28;20199;-36
2023/08/02 14:25:27;;;;;;;1.87;1.60;;;;;;;;;;5083795;28;20200;-37
2023/08/02 14:27:54;;;;;;;2.07;1.77;;;;;;;;;;5086980;28;20196;-34
2023/08/02 14:30:21;;;;;;;2.27;1.90;;;;;;;;;;5086065;28;20250;-31
2023/08/02 14:32:48;;;;;;;3.50;1.90;;;;;;;;;;5076864;28;20258;-32
2023/08/02 14:35:18;;;;;;;1.97;1.77;;;;;;;;;;5079213;28;20295;-32
2023/08/02 14:37:46;;;;;;;1.70;1.60;;;;;;;;;;5087889;28;20220;-35
2023/08/02 14:40:15;;;;;;;5.13;1.73;;;;;;;;;;5077647;28;20252;-32
2023/08/02 14:42:43;;;;;;;1.70;1.60;;;;;;;;;;5082547;28;20194;-34
2023/08/02 14:45:11;;;;;;;3.03;2.00;;;;;;;;;;5082730;28;20269;-32
2023/08/02 14:47:38;;;;;;;2.23;1.70;;;;;;;;;;5079637;28;20242;-31